Time;durP1;ratioP1;P1;durP2;ratioP2;P2;SDS_P1;SDS_P2;PMS_P1;PMS_P2;Temp;Humidity;BMP_temperature;BMP_pressure;BME280_temperature;BME280_humidity;BME280_pressure;Samples;Min_cycle;Max_cycle;Signal;HPM_P1;HPM_P2
2021/08/25 00:02:10;;;;;;;12.15;10.88;;;;;;;17.73;93.77;99683.27;1671884;85;21602;-72
2021/08/25 00:04:40;;;;;;;12.75;10.70;;;;;;;17.92;93.65;99681.31;1674945;84;21789;-74
2021/08/25 00:07:07;;;;;;;19.25;12.63;;;;;;;18.04;92.95;99669.38;1675407;83;21099;-74
2021/08/25 00:09:38;;;;;;;21.33;14.60;;;;;;;18.04;90.91;99669.38;1675045;84;21110;-72
2021/08/25 00:12:06;;;;;;;14.87;13.20;;;;;;;17.82;91.46;99664.61;1670304;85;21127;-75
2021/08/25 00:14:34;;;;;;;15.68;12.85;;;;;;;17.77;91.92;99654.36;1671459;85;21532;-71
2021/08/25 00:17:01;;;;;;;20.50;13.70;;;;;;;17.75;92.68;99646.48;1672030;84;21725;-83
2021/08/25 00:19:29;;;;;;;21.17;14.30;;;;;;;17.69;93.12;99642.25;1652306;85;21575;-81
2021/08/25 00:21:55;;;;;;;18.90;13.22;;;;;;;17.66;93.90;99628.42;1675471;85;22222;-84
2021/08/25 00:24:22;;;;;;;21.57;14.65;;;;;;;17.69;94.37;99625.94;1672300;84;21015;-82
2021/08/25 00:26:48;;;;;;;24.00;14.40;;;;;;;17.73;94.64;99617.98;1671997;85;20963;-73
2021/08/25 00:29:15;;;;;;;22.37;14.10;;;;;;;17.83;94.68;99626.77;1650928;85;21083;-72
2021/08/25 00:31:41;;;;;;;21.02;13.18;;;;;;;17.86;94.25;99618.00;1671724;85;20978;-72
2021/08/25 00:34:09;;;;;;;20.77;13.62;;;;;;;17.84;94.07;99614.76;1671450;85;21602;-71
2021/08/25 00:36:36;;;;;;;27.17;13.43;;;;;;;17.81;93.95;99618.09;1650904;85;21023;-72
2021/08/25 00:39:03;;;;;;;20.05;12.25;;;;;;;17.80;94.34;99592.53;1671708;85;21066;-73
2021/08/25 00:41:30;;;;;;;28.02;12.63;;;;;;;17.78;94.23;99589.32;1687521;84;21183;-74
2021/08/25 00:43:57;;;;;;;24.80;14.75;;;;;;;17.77;94.08;99583.07;1661425;85;20949;-75
2021/08/25 00:46:24;;;;;;;17.35;12.20;;;;;;;17.79;94.14;99580.84;1661198;85;21594;-81
2021/08/25 00:48:51;;;;;;;17.90;12.70;;;;;;;17.90;94.66;99578.75;1685192;85;21034;-73
2021/08/25 00:51:18;;;;;;;15.25;12.00;;;;;;;17.96;93.87;99585.72;1661218;85;21010;-74
2021/08/25 00:53:44;;;;;;;19.98;14.45;;;;;;;18.01;93.91;99601.14;1677940;85;22048;-72
2021/08/25 00:56:11;;;;;;;15.98;11.70;;;;;;;18.05;93.18;99608.41;1684966;85;21317;-72
2021/08/25 00:58:39;;;;;;;17.45;12.78;;;;;;;18.10;93.05;99626.00;1684996;85;20945;-72
2021/08/25 01:01:08;;;;;;;19.52;12.75;;;;;;;18.14;92.79;99625.64;1661201;85;21010;-72
2021/08/25 01:03:43;;;;;;;17.50;12.53;;;;;;;18.26;92.66;99636.05;1684882;85;21029;-73
2021/08/25 01:06:13;;;;;;;17.02;13.03;;;;;;;18.38;91.70;99649.96;1661142;85;21044;-71
2021/08/25 01:08:40;;;;;;;16.75;13.53;;;;;;;18.42;90.83;99637.35;1684887;85;20894;-78
2021/08/25 01:11:11;;;;;;;17.02;14.25;;;;;;;18.43;90.05;99634.89;1661197;85;21554;-76
2021/08/25 01:13:37;;;;;;;17.12;11.75;;;;;;;18.38;89.87;99633.63;1684766;85;21502;-76
2021/08/25 01:16:04;;;;;;;35.98;24.55;;;;;;;18.29;90.35;99634.89;1659162;85;21096;-83
2021/08/25 01:18:30;;;;;;;17.85;15.78;;;;;;;18.09;93.80;99637.98;1679522;83;21044;-83
2021/08/25 01:20:57;;;;;;;23.30;14.78;;;;;;;17.89;96.32;99645.16;1662613;85;20959;-80
2021/08/25 01:23:23;;;;;;;21.12;13.15;;;;;;;17.75;97.58;99657.91;1671843;85;21037;-80
2021/08/25 01:25:57;;;;;;;19.48;13.58;;;;;;;17.68;97.83;99659.67;1658030;85;21065;-81
2021/08/25 01:28:27;;;;;;;17.23;12.45;;;;;;;17.67;95.81;99655.88;1684944;85;20986;-80
2021/08/25 01:30:53;;;;;;;17.95;12.88;;;;;;;17.72;95.18;99666.68;1685475;85;21115;-81
2021/08/25 01:33:26;;;;;;;17.87;13.93;;;;;;;17.69;95.19;99652.33;1684969;85;21720;-83
2021/08/25 01:35:53;;;;;;;16.67;12.55;;;;;;;17.64;95.48;99653.22;1685157;85;21008;-84
2021/08/25 01:38:37;;;;;;;20.95;12.93;;;;;;;17.58;94.44;99653.00;1661396;85;21028;-82
2021/08/25 01:41:05;;;;;;;16.23;12.75;;;;;;;17.60;94.92;99644.59;1675489;84;21050;-83
2021/08/25 01:43:35;;;;;;;17.25;14.18;;;;;;;17.65;94.55;99639.84;1659134;86;41304;-83
2021/08/25 01:46:01;;;;;;;18.57;13.53;;;;;;;17.75;94.38;99647.84;1662990;86;22261;-83
2021/08/25 01:48:30;;;;;;;18.82;13.95;;;;;;;17.81;94.24;99649.38;1647522;87;21026;-81
2021/08/25 01:50:56;;;;;;;21.85;14.07;;;;;;;17.85;94.42;99641.42;1647421;87;21496;-79
2021/08/25 01:53:23;;;;;;;18.17;12.78;;;;;;;17.97;94.87;99619.18;1633243;87;21090;-81
2021/08/25 01:55:49;;;;;;;13.85;11.60;;;;;;;18.04;94.51;99610.05;1646652;86;21502;-81
2021/08/25 01:58:15;;;;;;;16.95;13.38;;;;;;;17.98;94.07;99616.17;1642946;87;21500;-81
2021/08/25 02:00:42;;;;;;;16.42;12.75;;;;;;;17.75;95.46;99609.76;1646849;85;21552;-80
2021/08/25 02:03:08;;;;;;;16.45;13.60;;;;;;;17.55;97.97;99601.12;1646605;86;21054;-80
2021/08/25 02:05:35;;;;;;;15.75;13.62;;;;;;;17.32;99.40;99600.12;1646719;86;21118;-80
2021/08/25 02:08:03;;;;;;;13.10;11.53;;;;;;;17.23;99.74;99597.82;1647454;87;20971;-81
2021/08/25 02:10:33;;;;;;;16.37;12.95;;;;;;;17.30;99.87;99596.36;1647405;86;20955;-81
2021/08/25 02:12:59;;;;;;;15.72;11.83;;;;;;;17.33;99.49;99584.06;1647447;87;21035;-81
2021/08/25 02:15:27;;;;;;;16.87;12.58;;;;;;;17.41;99.48;99577.95;1642107;86;21496;-81
2021/08/25 02:17:53;;;;;;;20.95;11.78;;;;;;;17.41;99.27;99584.19;1637667;87;21537;-81
2021/08/25 02:20:20;;;;;;;16.80;11.22;;;;;;;17.42;99.16;99574.13;1647462;87;21131;-80
2021/08/25 02:22:46;;;;;;;16.70;12.10;;;;;;;17.43;98.97;99570.31;1623376;86;20968;-82
2021/08/25 02:25:14;;;;;;;14.80;10.60;;;;;;;17.46;98.87;99568.34;1647551;85;21016;-81
2021/08/25 02:27:40;;;;;;;18.35;13.90;;;;;;;17.53;98.87;99570.69;1647492;87;21667;-81
2021/08/25 02:30:10;;;;;;;17.82;11.90;;;;;;;17.56;98.62;99569.53;1646673;86;21592;-83
2021/08/25 02:32:36;;;;;;;13.68;10.58;;;;;;;17.62;97.89;99575.17;1647284;87;21102;-82
2021/08/25 02:35:04;;;;;;;14.28;11.18;;;;;;;17.68;97.72;99583.51;1647450;86;21024;-82
2021/08/25 02:37:30;;;;;;;17.45;12.18;;;;;;;17.74;97.65;99580.15;1647323;85;21541;-81
2021/08/25 02:39:56;;;;;;;14.60;12.55;;;;;;;17.76;96.70;99582.00;1623667;86;21075;-81
2021/08/25 02:42:22;;;;;;;15.50;12.78;;;;;;;17.74;96.19;99575.52;1640480;87;21303;-82
2021/08/25 02:44:50;;;;;;;17.55;12.58;;;;;;;17.73;96.23;99563.56;1639748;87;22331;-81
2021/08/25 02:47:17;;;;;;;15.28;11.48;;;;;;;17.79;96.33;99568.59;1639692;87;21156;-82
2021/08/25 02:49:43;;;;;;;17.92;12.80;;;;;;;17.82;96.28;99572.64;1639947;87;20963;-82
2021/08/25 02:52:09;;;;;;;13.78;12.00;;;;;;;17.80;96.21;99567.50;1639104;87;21024;-83
2021/08/25 02:54:35;;;;;;;15.68;11.85;;;;;;;17.79;96.33;99557.72;1639213;85;21085;-83
2021/08/25 02:57:02;;;;;;;16.07;13.55;;;;;;;17.76;96.57;99558.87;1639576;87;21140;-82
2021/08/25 02:59:30;;;;;;;17.67;13.15;;;;;;;17.72;96.87;99551.06;1639628;87;21104;-81
2021/08/25 03:01:56;;;;;;;13.58;11.83;;;;;;;17.76;97.23;99556.97;1639872;87;20932;-81
2021/08/25 03:04:23;;;;;;;18.20;13.40;;;;;;;17.81;96.94;99563.67;1639088;87;21072;-82
2021/08/25 03:06:51;;;;;;;14.03;11.60;;;;;;;17.82;96.87;99563.94;1639823;87;21012;-80
2021/08/25 03:09:17;;;;;;;23.27;13.13;;;;;;;17.90;96.91;99565.14;1617441;87;21559;-81
2021/08/25 03:11:44;;;;;;;13.40;11.70;;;;;;;17.90;96.57;99558.34;1616035;87;21008;-82
2021/08/25 03:14:10;;;;;;;16.37;12.47;;;;;;;17.96;96.61;99559.86;1615783;87;21549;-82
2021/08/25 03:16:36;;;;;;;18.80;11.40;;;;;;;18.03;96.25;99556.20;1639412;86;21040;-82
2021/08/25 03:19:02;;;;;;;20.25;11.83;;;;;;;18.00;95.68;99552.70;1639751;86;21069;-82
2021/08/25 03:21:29;;;;;;;21.75;14.73;;;;;;;17.99;95.39;99563.33;1639637;87;21312;-82
2021/08/25 03:23:55;;;;;;;23.47;14.25;;;;;;;17.97;95.41;99558.77;1640031;87;21104;-83
2021/08/25 03:26:21;;;;;;;24.27;13.22;;;;;;;18.00;95.47;99567.67;1639596;87;21035;-84
2021/08/25 03:28:47;;;;;;;19.82;12.10;;;;;;;18.02;95.42;99564.11;1639197;85;21088;-83
2021/08/25 03:31:14;;;;;;;23.52;14.10;;;;;;;18.03;95.03;99560.84;1639007;87;21116;-82
2021/08/25 03:33:40;;;;;;;16.25;12.85;;;;;;;18.02;94.93;99566.83;1639288;87;21518;-84
2021/08/25 03:36:08;;;;;;;19.37;11.80;;;;;;;17.97;94.83;99556.59;1639696;85;21052;-84
2021/08/25 03:38:35;;;;;;;22.48;13.10;;;;;;;17.98;95.14;99561.74;1639811;87;21616;-86
2021/08/25 03:41:01;;;;;;;19.60;13.30;;;;;;;17.99;94.74;99554.36;1639353;87;21044;-84
2021/08/25 03:43:27;;;;;;;21.33;13.22;;;;;;;17.96;94.50;99554.97;1639090;87;21111;-86
2021/08/25 03:45:54;;;;;;;16.10;10.45;;;;;;;17.85;94.26;99555.16;1638646;87;21164;-87
2021/08/25 03:48:20;;;;;;;13.85;11.30;;;;;;;17.79;94.54;99550.91;1639964;87;21044;-83
2021/08/25 03:50:47;;;;;;;16.73;12.07;;;;;;;17.80;94.80;99555.25;1640277;87;21108;-86
2021/08/25 03:53:13;;;;;;;22.50;14.33;;;;;;;17.84;94.33;99554.13;1636483;87;21116;-92
2021/08/25 03:55:40;;;;;;;26.70;12.60;;;;;;;17.84;94.27;99552.18;1640053;87;21101;-88
2021/08/25 03:58:07;;;;;;;15.85;11.60;;;;;;;17.90;94.17;99544.73;1639482;87;21036;-89
2021/08/25 04:00:34;;;;;;;15.98;12.82;;;;;;;17.92;93.96;99545.80;1639671;87;21082;-79
2021/08/25 04:03:00;;;;;;;14.98;13.03;;;;;;;17.94;93.65;99548.45;1641009;87;21028;-79
2021/08/25 04:05:26;;;;;;;21.60;12.28;;;;;;;17.92;93.38;99549.33;1642078;87;21076;-81
2021/08/25 04:07:53;;;;;;;15.30;10.65;;;;;;;17.83;93.31;99551.95;1617651;87;20928;-79
2021/08/25 04:10:19;;;;;;;17.70;11.43;;;;;;;17.84;93.60;99558.20;1617795;87;21520;-81
2021/08/25 04:12:47;;;;;;;17.02;10.80;;;;;;;17.81;93.28;99551.44;1639548;87;20992;-79
2021/08/25 04:15:13;;;;;;;15.95;11.45;;;;;;;17.77;93.39;99554.50;1640070;86;21182;-80
2021/08/25 04:17:40;;;;;;;21.10;14.25;;;;;;;17.78;93.83;99550.69;1643254;84;20964;-79
2021/08/25 04:20:09;;;;;;;13.65;11.70;;;;;;;17.85;93.64;99554.35;1643285;86;21025;-81
2021/08/25 04:22:48;;;;;;;17.82;12.95;;;;;;;17.86;93.28;99551.34;1619358;85;21008;-80
2021/08/25 04:25:15;;;;;;;17.62;14.00;;;;;;;17.86;93.31;99555.42;1640821;87;20981;-82
2021/08/25 04:27:41;;;;;;;16.80;11.80;;;;;;;17.91;93.46;99552.34;1640144;87;21017;-81
2021/08/25 04:30:11;;;;;;;23.95;13.53;;;;;;;17.91;93.21;99552.34;1640155;87;21008;-81
2021/08/25 04:32:37;;;;;;;17.82;13.45;;;;;;;17.87;93.29;99543.98;1639948;87;21577;-81
2021/08/25 04:35:05;;;;;;;20.17;11.25;;;;;;;17.88;93.54;99537.99;1639862;87;23218;-80
2021/08/25 04:37:31;;;;;;;18.05;13.28;;;;;;;17.92;93.84;99534.91;1639723;87;21031;-80
2021/08/25 04:39:58;;;;;;;16.95;12.23;;;;;;;17.91;94.00;99531.38;1616458;87;21511;-81
2021/08/25 04:42:25;;;;;;;15.90;11.10;;;;;;;17.94;94.35;99525.33;1618239;87;20937;-81
2021/08/25 04:44:52;;;;;;;14.05;11.33;;;;;;;18.03;94.21;99528.17;1642377;87;21048;-80
2021/08/25 04:47:18;;;;;;;19.95;13.80;;;;;;;18.05;93.66;99521.86;1646848;87;21533;-81
2021/08/25 04:49:45;;;;;;;15.80;12.28;;;;;;;18.04;93.38;99518.88;1646922;87;21035;-80
2021/08/25 04:52:13;;;;;;;16.37;11.95;;;;;;;18.02;93.36;99519.75;1642413;87;21040;-82
2021/08/25 04:54:40;;;;;;;18.42;13.28;;;;;;;18.00;93.32;99523.31;1599472;87;21043;-80
2021/08/25 04:57:08;;;;;;;15.28;11.57;;;;;;;18.01;93.21;99519.50;1646564;87;21542;-81
2021/08/25 04:59:34;;;;;;;20.30;12.10;;;;;;;18.04;92.98;99517.52;1646732;87;21556;-80
2021/08/25 05:02:00;;;;;;;16.35;10.85;;;;;;;18.04;93.13;99520.23;1647624;87;20968;-79
2021/08/25 05:04:27;;;;;;;19.02;11.63;;;;;;;18.05;92.90;99531.38;1646907;87;21050;-82
2021/08/25 05:06:53;;;;;;;16.90;11.20;;;;;;;18.03;93.00;99526.27;1647067;87;21115;-81
2021/08/25 05:09:19;;;;;;;13.85;10.05;;;;;;;18.03;93.07;99536.34;1646761;87;21071;-81
2021/08/25 05:11:47;;;;;;;14.20;10.85;;;;;;;18.03;93.21;99536.34;1646682;87;21993;-81
2021/08/25 05:14:14;;;;;;;17.73;10.43;;;;;;;18.09;93.06;99525.58;1599073;87;21588;-80
2021/08/25 05:16:41;;;;;;;15.00;10.85;;;;;;;18.14;92.86;99518.13;1619050;87;21036;-80
2021/08/25 05:19:07;;;;;;;10.82;9.35;;;;;;;18.16;92.54;99518.64;1618980;87;21079;-82
2021/08/25 05:21:34;;;;;;;13.15;10.48;;;;;;;18.22;92.44;99519.34;1646769;87;21107;-81
2021/08/25 05:24:05;;;;;;;14.10;10.93;;;;;;;18.26;91.81;99517.62;1646802;87;21535;-81
2021/08/25 05:26:29;;;;;;;14.58;11.28;;;;;;;18.25;91.47;99521.45;1646108;87;20999;-83
2021/08/25 05:28:56;;;;;;;12.58;10.05;;;;;;;18.22;91.67;99516.62;1618761;87;21065;-81
2021/08/25 05:31:25;;;;;;;11.83;10.63;;;;;;;18.23;92.03;99523.66;1646792;85;21031;-81
2021/08/25 05:33:53;;;;;;;13.65;11.63;;;;;;;18.23;92.00;99519.02;1646617;87;21642;-81
2021/08/25 05:36:19;;;;;;;14.30;10.48;;;;;;;18.28;91.93;99517.55;1646618;85;21127;-81
2021/08/25 05:38:46;;;;;;;17.27;12.35;;;;;;;18.37;91.97;99515.49;1646732;87;20959;-82
2021/08/25 05:41:12;;;;;;;14.33;11.75;;;;;;;18.44;92.29;99513.95;1646586;85;21488;-81
2021/08/25 05:43:39;;;;;;;13.98;11.22;;;;;;;18.49;92.32;99513.84;1646492;87;21082;-81
2021/08/25 05:46:05;;;;;;;14.13;11.88;;;;;;;18.53;92.35;99515.39;1646793;87;21582;-83
2021/08/25 05:48:32;;;;;;;11.60;10.40;;;;;;;18.57;92.15;99507.69;1646570;87;22030;-83
2021/08/25 05:50:58;;;;;;;13.10;11.85;;;;;;;18.65;91.67;99507.54;1646604;87;20991;-82
2021/08/25 05:53:25;;;;;;;15.05;11.55;;;;;;;18.68;91.38;99514.53;1618994;87;21529;-83
2021/08/25 05:55:51;;;;;;;12.68;11.35;;;;;;;18.69;91.19;99511.25;1646641;87;20953;-83
2021/08/25 05:58:18;;;;;;;13.08;11.75;;;;;;;18.71;91.09;99507.65;1618986;87;21572;-83
2021/08/25 06:00:44;;;;;;;11.33;9.93;;;;;;;18.76;90.70;99506.17;1618979;87;21793;-82
2021/08/25 06:03:10;;;;;;;14.98;10.98;;;;;;;18.85;90.12;99508.98;1646538;87;21589;-80
2021/08/25 06:05:37;;;;;;;13.93;11.73;;;;;;;18.87;89.93;99511.64;1646705;87;20971;-82
2021/08/25 06:08:05;;;;;;;15.18;13.00;;;;;;;18.89;89.16;99509.98;1642177;85;21019;-81
2021/08/25 06:10:31;;;;;;;15.88;11.68;;;;;;;18.98;88.52;99504.03;1646969;87;21087;-83
2021/08/25 06:12:58;;;;;;;13.83;11.73;;;;;;;19.04;87.93;99509.03;1646792;87;21204;-83
2021/08/25 06:15:24;;;;;;;10.30;9.25;;;;;;;19.07;86.91;99518.52;1646670;85;21100;-83
2021/08/25 06:17:50;;;;;;;10.93;9.80;;;;;;;19.06;86.28;99514.98;1646594;87;21062;-82
2021/08/25 06:20:16;;;;;;;12.33;10.38;;;;;;;19.09;85.94;99512.19;1605677;88;21296;-82
2021/08/25 06:22:43;;;;;;;12.25;11.05;;;;;;;19.10;85.86;99513.80;1619096;88;21059;-82
2021/08/25 06:25:10;;;;;;;13.55;12.00;;;;;;;19.11;85.69;99508.61;1629993;87;21039;-84
2021/08/25 06:27:37;;;;;;;13.08;11.22;;;;;;;19.10;85.41;99507.80;1686642;84;21003;-81
2021/08/25 06:30:11;;;;;;;16.05;12.50;;;;;;;19.12;84.98;99506.94;1708255;83;20985;-81
2021/08/25 06:32:41;;;;;;;16.35;11.08;;;;;;;19.14;84.80;99506.05;1685335;85;21569;-80
2021/08/25 06:35:09;;;;;;;12.00;10.53;;;;;;;19.23;84.74;99508.05;1699754;83;21003;-80
2021/08/25 06:37:35;;;;;;;12.15;10.82;;;;;;;19.27;84.39;99515.30;1700119;84;21500;-79
2021/08/25 06:40:03;;;;;;;11.97;10.30;;;;;;;19.22;84.78;99520.87;1665776;86;21038;-80
2021/08/25 06:42:29;;;;;;;12.47;10.85;;;;;;;19.23;84.81;99523.05;1689838;83;21036;-79
2021/08/25 06:44:56;;;;;;;13.32;10.32;;;;;;;19.25;84.96;99521.61;1678617;84;21559;-81
2021/08/25 06:47:22;;;;;;;13.50;11.20;;;;;;;19.25;85.04;99520.25;1695900;83;22249;-80
2021/08/25 06:49:50;;;;;;;17.67;12.05;;;;;;;19.27;85.60;99520.75;1674689;84;21527;-81
2021/08/25 06:52:16;;;;;;;13.45;12.05;;;;;;;19.26;85.62;99523.78;1677828;84;20933;-81
2021/08/25 06:54:43;;;;;;;16.73;13.48;;;;;;;19.27;85.09;99524.84;1679113;85;21074;-81
2021/08/25 06:57:09;;;;;;;15.95;12.88;;;;;;;19.24;85.33;99529.54;1723776;83;21003;-81
2021/08/25 06:59:35;;;;;;;17.25;13.80;;;;;;;19.27;85.44;99526.77;1678738;84;21124;-79
2021/08/25 07:02:02;;;;;;;16.55;14.80;;;;;;;19.26;85.11;99523.23;1695950;83;21096;-81
2021/08/25 07:04:29;;;;;;;17.12;14.78;;;;;;;19.26;85.29;99525.95;1674700;85;21165;-81
2021/08/25 07:06:57;;;;;;;16.97;13.05;;;;;;;19.18;85.57;99522.03;1666357;85;20937;-81
2021/08/25 07:09:24;;;;;;;15.83;14.00;;;;;;;19.17;85.82;99529.19;1629172;87;21066;-82
2021/08/25 07:11:51;;;;;;;17.00;15.08;;;;;;;19.20;86.29;99529.92;1695889;84;21498;-82
2021/08/25 07:14:17;;;;;;;18.20;13.05;;;;;;;19.28;86.63;99533.25;1654919;85;21043;-80
2021/08/25 07:16:44;;;;;;;18.35;14.87;;;;;;;19.35;86.34;99541.00;1674505;84;21056;-81
2021/08/25 07:19:12;;;;;;;16.17;13.90;;;;;;;19.41;86.33;99539.77;1654988;85;21076;-82
2021/08/25 07:21:38;;;;;;;18.75;14.10;;;;;;;19.46;85.28;99536.95;1674579;85;20983;-82
2021/08/25 07:24:05;;;;;;;18.52;14.80;;;;;;;19.51;85.64;99539.54;1678061;85;21075;-81
2021/08/25 07:26:32;;;;;;;16.02;13.58;;;;;;;19.63;85.62;99532.12;1674867;85;21056;-82
2021/08/25 07:28:58;;;;;;;19.20;15.08;;;;;;;19.71;85.08;99540.34;1672461;84;20993;-82
2021/08/25 07:31:25;;;;;;;16.48;13.10;;;;;;;19.79;84.27;99543.70;1706675;82;21024;-82
2021/08/25 07:33:51;;;;;;;19.00;14.35;;;;;;;19.91;83.92;99542.53;1683077;84;21024;-82
2021/08/25 07:36:18;;;;;;;16.27;13.50;;;;;;;20.02;82.96;99529.41;1703225;84;21032;-81
2021/08/25 07:38:44;;;;;;;22.22;17.60;;;;;;;20.11;82.65;99528.07;1703407;84;21101;-82
2021/08/25 07:41:10;;;;;;;16.65;14.95;;;;;;;20.14;82.27;99530.19;1682765;84;20937;-84
2021/08/25 07:43:36;;;;;;;18.55;15.20;;;;;;;20.21;82.30;99521.77;1691548;84;21045;-82
2021/08/25 07:46:04;;;;;;;16.17;13.25;;;;;;;20.32;82.19;99519.58;1688173;84;21048;-82
2021/08/25 07:48:31;;;;;;;22.00;13.03;;;;;;;20.43;81.95;99518.16;1688229;84;21005;-81
2021/08/25 07:50:59;;;;;;;19.62;14.93;;;;;;;20.58;81.48;99525.06;1688372;84;21161;-84
2021/08/25 07:53:26;;;;;;;18.00;13.45;;;;;;;20.68;81.10;99523.39;1688314;85;21625;-84
2021/08/25 07:55:52;;;;;;;17.85;13.55;;;;;;;20.68;81.10;99523.39;1668250;85;21001;-83
2021/08/25 07:58:19;;;;;;;17.48;14.73;;;;;;;20.78;79.80;99527.98;1688245;84;21071;-84
2021/08/25 08:00:46;;;;;;;17.48;15.13;;;;;;;20.70;80.11;99519.23;1691451;84;21574;-82
2021/08/25 08:03:12;;;;;;;15.50;13.65;;;;;;;20.70;80.11;99519.23;1688297;84;21165;-83
2021/08/25 08:05:43;;;;;;;17.10;12.47;;;;;;;20.72;81.03;99528.48;1668277;84;20989;-81
2021/08/25 08:08:10;;;;;;;17.05;13.48;;;;;;;20.78;79.43;99521.70;1688106;83;21042;-83
2021/08/25 08:10:36;;;;;;;17.98;13.83;;;;;;;20.76;79.70;99521.25;1688259;85;21073;-83
2021/08/25 08:13:03;;;;;;;16.93;12.78;;;;;;;20.78;79.64;99526.62;1688283;83;21012;-83
2021/08/25 08:15:33;;;;;;;15.32;12.13;;;;;;;20.79;79.49;99521.40;1688166;84;21025;-84
2021/08/25 08:18:08;;;;;;;14.28;12.80;;;;;;;20.84;79.77;99525.91;1667449;85;21024;-83
2021/08/25 08:20:28;;;;;;;18.10;14.10;;;;;;;20.89;79.51;99533.38;1668086;85;21005;-83
2021/08/25 08:22:54;;;;;;;18.90;14.98;;;;;;;20.98;78.73;99535.30;1687995;84;21018;-81
2021/08/25 08:25:20;;;;;;;18.20;16.00;;;;;;;21.02;78.15;99528.06;1688501;85;21088;-85
2021/08/25 08:27:48;;;;;;;20.85;15.35;;;;;;;20.92;78.64;99527.02;1689284;84;21011;-89
2021/08/25 08:30:14;;;;;;;20.17;17.60;;;;;;;20.87;79.24;99533.45;1668828;85;21110;-91
2021/08/25 08:32:41;;;;;;;21.87;16.50;;;;;;;20.85;79.11;99530.25;1689173;85;21035;-90
2021/08/25 08:35:08;;;;;;;18.42;16.32;;;;;;;20.89;78.66;99527.11;1689069;85;20985;-91
2021/08/25 08:37:34;;;;;;;17.23;15.43;;;;;;;21.00;78.51;99530.33;1668584;85;22144;-90
2021/08/25 08:40:03;;;;;;;21.12;18.02;;;;;;;21.07;77.97;99524.59;1688436;84;21849;-80
2021/08/25 08:42:32;;;;;;;18.45;16.40;;;;;;;21.04;77.76;99524.45;1670607;84;21029;-80
2021/08/25 08:44:59;;;;;;;18.02;16.12;;;;;;;21.03;77.67;99522.28;1648225;85;21043;-81
2021/08/25 08:47:26;;;;;;;17.50;15.05;;;;;;;21.05;76.87;99515.13;1625227;85;21035;-82
2021/08/25 08:49:54;;;;;;;20.48;15.58;;;;;;;21.01;77.24;99514.14;1671722;84;21043;-83
2021/08/25 08:52:21;;;;;;;20.12;16.55;;;;;;;20.98;77.43;99525.73;1671795;84;21836;-83
2021/08/25 08:54:50;;;;;;;19.90;17.73;;;;;;;20.99;77.25;99526.79;1671682;84;20959;-83
2021/08/25 08:57:18;;;;;;;20.35;16.15;;;;;;;21.01;76.89;99521.78;1691788;84;20900;-83
2021/08/25 08:59:44;;;;;;;16.90;15.18;;;;;;;21.05;76.99;99535.08;1699763;84;21083;-83
2021/08/25 09:02:10;;;;;;;18.92;16.70;;;;;;;21.05;77.05;99530.17;1676019;83;20981;-84
2021/08/25 09:04:46;;;;;;;21.17;16.40;;;;;;;21.01;77.46;99525.08;1700127;83;20993;-83
2021/08/25 09:07:18;;;;;;;18.40;16.65;;;;;;;20.98;77.63;99523.00;1699840;84;21037;-82
2021/08/25 09:09:57;;;;;;;19.37;15.98;;;;;;;20.98;77.82;99525.17;1675783;84;21518;-83
2021/08/25 09:12:23;;;;;;;18.65;16.75;;;;;;;21.05;78.00;99520.59;1699916;83;21540;-86
2021/08/25 09:14:50;;;;;;;17.90;16.00;;;;;;;21.05;78.19;99520.59;1685275;83;21047;-84
2021/08/25 09:17:28;;;;;;;20.23;14.75;;;;;;;20.97;78.68;99511.81;1671032;85;21537;-85
2021/08/25 09:20:11;;;;;;;18.50;15.50;;;;;;;20.95;78.94;99523.66;1673549;84;20952;-83
2021/08/25 09:22:37;;;;;;;17.55;15.28;;;;;;;20.92;79.20;99526.45;1701113;84;28703;-82
2021/08/25 09:25:04;;;;;;;18.05;16.35;;;;;;;20.82;79.42;99523.48;1678023;84;21502;-86
2021/08/25 09:27:31;;;;;;;18.80;15.35;;;;;;;20.82;79.51;99518.02;1696920;84;21518;-78
2021/08/25 09:30:00;;;;;;;17.42;15.72;;;;;;;20.84;79.59;99521.24;1684784;84;21007;-77
2021/08/25 09:32:28;;;;;;;17.87;16.10;;;;;;;20.80;79.88;99523.02;1694412;84;21036;-77
2021/08/25 09:34:56;;;;;;;20.32;17.92;;;;;;;20.80;79.70;99521.65;1697645;84;21036;-76
2021/08/25 09:37:24;;;;;;;18.20;16.30;;;;;;;20.85;79.69;99521.48;1694612;84;21542;-77
2021/08/25 09:39:54;;;;;;;18.80;16.80;;;;;;;20.88;79.51;99522.20;1668871;84;21132;-76
2021/08/25 09:42:22;;;;;;;16.57;14.98;;;;;;;20.86;79.70;99515.46;1696656;84;21112;-77
2021/08/25 09:45:06;;;;;;;20.57;16.70;;;;;;;20.88;79.65;99517.29;1668031;85;21088;-80
2021/08/25 09:47:55;;;;;;;20.27;16.67;;;;;;;20.83;79.92;99514.16;1688319;84;21061;-80
2021/08/25 09:50:24;;;;;;;22.73;18.10;;;;;;;20.84;80.16;99504.84;1659017;86;21039;-79
2021/08/25 09:52:50;;;;;;;18.52;16.60;;;;;;;20.89;80.48;99504.67;1650450;87;21114;-80
2021/08/25 09:55:31;;;;;;;25.55;18.73;;;;;;;20.88;80.64;99504.43;1636492;86;21059;-79
2021/08/25 09:57:58;;;;;;;28.45;25.23;;;;;;;20.88;80.61;99498.96;1650120;86;20960;-77
2021/08/25 10:00:26;;;;;;;23.47;18.42;;;;;;;20.82;80.66;99507.08;1635015;87;21137;-76
2021/08/25 10:02:53;;;;;;;21.05;18.23;;;;;;;20.85;80.48;99498.81;1636552;87;21043;-77
2021/08/25 10:05:26;;;;;;;17.37;15.58;;;;;;;20.83;80.19;99484.65;1650099;86;21077;-77
2021/08/25 10:07:53;;;;;;;19.30;16.15;;;;;;;20.86;80.11;99490.27;1650122;87;21099;-80
2021/08/25 10:10:20;;;;;;;21.87;18.73;;;;;;;20.92;80.06;99483.27;1650267;87;21054;-77
2021/08/25 10:12:53;;;;;;;15.45;13.85;;;;;;;21.00;79.74;99482.47;1650031;85;21110;-76
2021/08/25 10:15:46;;;;;;;16.73;14.63;;;;;;;21.10;79.72;99476.08;1636916;87;21085;-79
2021/08/25 10:18:29;;;;;;;19.70;15.95;;;;;;;21.20;78.86;99483.17;1686995;85;20981;-79
2021/08/25 10:20:58;;;;;;;18.50;15.25;;;;;;;21.39;78.15;99480.88;1688931;84;21782;-78
2021/08/25 10:24:00;;;;;;;17.25;15.20;;;;;;;21.57;77.71;99470.13;1668262;84;20968;-82
2021/08/25 10:26:26;;;;;;;18.23;16.37;;;;;;;21.72;76.81;99475.63;1688369;85;21020;-80
2021/08/25 10:29:09;;;;;;;15.45;13.85;;;;;;;21.79;75.77;99470.44;1667979;85;21307;-73
2021/08/25 10:31:56;;;;;;;19.87;14.05;;;;;;;21.85;75.06;99464.20;1688469;85;21059;-70
2021/08/25 10:34:28;;;;;;;18.37;16.35;;;;;;;21.88;74.96;99457.50;1685146;84;21172;-71
2021/08/25 10:37:20;;;;;;;18.48;15.20;;;;;;;21.89;75.13;99455.00;1648379;86;21544;-81
2021/08/25 10:39:44;;;;;;;15.80;13.83;;;;;;;21.98;75.08;99448.94;1648317;86;20989;-74
2021/08/25 10:42:10;;;;;;;16.25;14.58;;;;;;;22.06;73.80;99448.67;1647479;87;21015;-83
2021/08/25 10:44:46;;;;;;;16.15;13.70;;;;;;;22.07;73.66;99442.03;1672158;84;21188;-79
2021/08/25 10:47:14;;;;;;;13.75;12.30;;;;;;;22.07;73.58;99452.42;1630969;85;21532;-79
2021/08/25 10:49:47;;;;;;;21.20;14.15;;;;;;;22.12;73.32;99451.43;1672087;85;21015;-82
2021/08/25 10:52:19;;;;;;;14.00;12.60;;;;;;;22.12;73.27;99446.75;1672286;85;21012;-78
2021/08/25 10:54:51;;;;;;;15.85;14.28;;;;;;;22.14;73.37;99445.06;1672400;84;21562;-77
2021/08/25 10:57:19;;;;;;;18.05;13.65;;;;;;;22.20;73.49;99451.16;1652604;85;21105;-80
2021/08/25 10:59:47;;;;;;;12.68;11.40;;;;;;;22.26;73.22;99435.54;1643367;86;21076;-78
2021/08/25 11:02:18;;;;;;;12.93;11.60;;;;;;;22.35;72.58;99440.39;1643139;87;20999;-76
2021/08/25 11:04:44;;;;;;;13.38;11.15;;;;;;;22.40;72.53;99432.53;1623102;87;21115;-76
2021/08/25 11:07:13;;;;;;;13.08;11.65;;;;;;;22.47;72.10;99429.50;1643355;87;21015;-82
2021/08/25 11:09:46;;;;;;;15.55;11.57;;;;;;;22.59;71.76;99425.44;1643401;87;21043;-84
2021/08/25 11:12:18;;;;;;;16.23;11.48;;;;;;;22.70;70.76;99414.90;1627105;85;21123;-76
2021/08/25 11:14:50;;;;;;;14.23;12.40;;;;;;;22.72;70.35;99409.89;1671677;85;21021;-72
2021/08/25 11:17:24;;;;;;;;;;;;;;;22.71;70.56;99419.81;1674354;85;20925;-83
2021/08/25 11:20:12;;;;;;;15.15;11.63;;;;;;;22.74;70.19;99413.08;1671909;85;20417;-87
2021/08/25 11:22:44;;;;;;;13.88;12.40;;;;;;;22.78;69.05;99414.01;1672361;85;20973;-75